sensor_id;sensor_type;location;lat;lon;timestamp;P1;durP1;ratioP1;P2;durP2;ratioP2
11113;SDS011;5610;52.154;9.198;2023-08-08T00:01:10;4.07;;;3.60;;
11113;SDS011;5610;52.154;9.198;2023-08-08T00:03:56;5.33;;;3.60;;
11113;SDS011;5610;52.154;9.198;2023-08-08T00:06:42;4.53;;;3.57;;
11113;SDS011;5610;52.154;9.198;2023-08-08T00:09:27;4.57;;;3.60;;
11113;SDS011;5610;52.154;9.198;2023-08-08T00:12:12;4.83;;;3.60;;
11113;SDS011;5610;52.154;9.198;2023-08-08T00:14:57;4.40;;;3.60;;
11113;SDS011;5610;52.154;9.198;2023-08-08T00:17:43;5.13;;;4.20;;
11113;SDS011;5610;52.154;9.198;2023-08-08T00:20:29;4.63;;;4.20;;
11113;SDS011;5610;52.154;9.198;2023-08-08T00:23:15;4.20;;;3.53;;
11113;SDS011;5610;52.154;9.198;2023-08-08T00:26:00;6.27;;;3.93;;
11113;SDS011;5610;52.154;9.198;2023-08-08T00:28:45;5.07;;;3.70;;
11113;SDS011;5610;52.154;9.198;2023-08-08T00:31:30;4.40;;;3.80;;
11113;SDS011;5610;52.154;9.198;2023-08-08T00:34:15;5.93;;;3.80;;
11113;SDS011;5610;52.154;9.198;2023-08-08T00:37:02;7.00;;;4.20;;
11113;SDS011;5610;52.154;9.198;2023-08-08T00:39:48;4.03;;;3.63;;
11113;SDS011;5610;52.154;9.198;2023-08-08T00:42:33;7.30;;;3.63;;
11113;SDS011;5610;52.154;9.198;2023-08-08T00:45:18;4.17;;;3.87;;
11113;SDS011;5610;52.154;9.198;2023-08-08T00:48:03;5.63;;;4.17;;
11113;SDS011;5610;52.154;9.198;2023-08-08T00:50:49;5.07;;;3.97;;
11113;SDS011;5610;52.154;9.198;2023-08-08T00:53:36;5.73;;;4.27;;
11113;SDS011;5610;52.154;9.198;2023-08-08T00:56:22;4.70;;;3.70;;
11113;SDS011;5610;52.154;9.198;2023-08-08T00:59:07;5.80;;;4.13;;
11113;SDS011;5610;52.154;9.198;2023-08-08T01:01:56;4.50;;;4.10;;
11113;SDS011;5610;52.154;9.198;2023-08-08T01:04:42;5.10;;;3.87;;
11113;SDS011;5610;52.154;9.198;2023-08-08T01:07:29;5.60;;;4.73;;
11113;SDS011;5610;52.154;9.198;2023-08-08T01:10:19;7.33;;;5.20;;
11113;SDS011;5610;52.154;9.198;2023-08-08T01:13:10;4.80;;;4.30;;
11113;SDS011;5610;52.154;9.198;2023-08-08T01:15:59;8.93;;;4.60;;
11113;SDS011;5610;52.154;9.198;2023-08-08T01:18:47;8.30;;;4.70;;
11113;SDS011;5610;52.154;9.198;2023-08-08T01:21:35;5.47;;;4.60;;
11113;SDS011;5610;52.154;9.198;2023-08-08T01:24:26;6.03;;;5.43;;
11113;SDS011;5610;52.154;9.198;2023-08-08T01:27:13;11.20;;;5.53;;
11113;SDS011;5610;52.154;9.198;2023-08-08T01:29:58;7.20;;;5.20;;
11113;SDS011;5610;52.154;9.198;2023-08-08T01:32:43;6.23;;;5.63;;
11113;SDS011;5610;52.154;9.198;2023-08-08T01:35:29;10.43;;;6.47;;
11113;SDS011;5610;52.154;9.198;2023-08-08T01:38:17;7.13;;;6.40;;
11113;SDS011;5610;52.154;9.198;2023-08-08T01:41:08;7.00;;;5.60;;
11113;SDS011;5610;52.154;9.198;2023-08-08T01:43:53;8.27;;;5.10;;
11113;SDS011;5610;52.154;9.198;2023-08-08T01:46:39;9.40;;;6.40;;
11113;SDS011;5610;52.154;9.198;2023-08-08T01:49:24;6.77;;;6.07;;
11113;SDS011;5610;52.154;9.198;2023-08-08T01:52:09;6.77;;;6.00;;
11113;SDS011;5610;52.154;9.198;2023-08-08T01:54:55;10.60;;;5.90;;
11113;SDS011;5610;52.154;9.198;2023-08-08T01:57:41;6.90;;;5.20;;
11113;SDS011;5610;52.154;9.198;2023-08-08T02:00:27;11.43;;;6.37;;
11113;SDS011;5610;52.154;9.198;2023-08-08T02:03:12;7.03;;;5.90;;
11113;SDS011;5610;52.154;9.198;2023-08-08T02:05:57;7.37;;;6.40;;
11113;SDS011;5610;52.154;9.198;2023-08-08T02:08:44;6.83;;;5.20;;
11113;SDS011;5610;52.154;9.198;2023-08-08T02:11:29;8.03;;;5.50;;
11113;SDS011;5610;52.154;9.198;2023-08-08T02:14:16;7.00;;;5.33;;
11113;SDS011;5610;52.154;9.198;2023-08-08T02:17:01;7.13;;;5.47;;
11113;SDS011;5610;52.154;9.198;2023-08-08T02:19:47;9.27;;;5.30;;
11113;SDS011;5610;52.154;9.198;2023-08-08T02:22:32;9.53;;;5.67;;
11113;SDS011;5610;52.154;9.198;2023-08-08T02:25:17;6.70;;;4.57;;
11113;SDS011;5610;52.154;9.198;2023-08-08T02:28:03;8.43;;;5.17;;
11113;SDS011;5610;52.154;9.198;2023-08-08T02:30:50;9.90;;;5.10;;
11113;SDS011;5610;52.154;9.198;2023-08-08T02:33:36;7.60;;;5.57;;
11113;SDS011;5610;52.154;9.198;2023-08-08T02:36:22;9.10;;;5.60;;
11113;SDS011;5610;52.154;9.198;2023-08-08T02:39:07;7.70;;;5.67;;
11113;SDS011;5610;52.154;9.198;2023-08-08T02:41:52;8.87;;;5.77;;
11113;SDS011;5610;52.154;9.198;2023-08-08T02:44:38;7.23;;;5.73;;
11113;SDS011;5610;52.154;9.198;2023-08-08T02:47:24;7.30;;;5.07;;
11113;SDS011;5610;52.154;9.198;2023-08-08T02:50:10;7.43;;;6.10;;
11113;SDS011;5610;52.154;9.198;2023-08-08T02:52:55;5.93;;;4.87;;
11113;SDS011;5610;52.154;9.198;2023-08-08T02:55:44;8.30;;;5.30;;
11113;SDS011;5610;52.154;9.198;2023-08-08T02:58:29;10.63;;;5.77;;
11113;SDS011;5610;52.154;9.198;2023-08-08T03:01:16;9.80;;;5.87;;
11113;SDS011;5610;52.154;9.198;2023-08-08T03:04:06;7.70;;;5.33;;
11113;SDS011;5610;52.154;9.198;2023-08-08T03:06:51;5.27;;;4.77;;
11113;SDS011;5610;52.154;9.198;2023-08-08T03:09:36;5.53;;;5.03;;
11113;SDS011;5610;52.154;9.198;2023-08-08T03:12:22;8.03;;;5.43;;
11113;SDS011;5610;52.154;9.198;2023-08-08T03:15:10;6.83;;;4.83;;
11113;SDS011;5610;52.154;9.198;2023-08-08T03:17:56;7.70;;;5.87;;
11113;SDS011;5610;52.154;9.198;2023-08-08T03:20:43;7.47;;;5.37;;
11113;SDS011;5610;52.154;9.198;2023-08-08T03:23:29;5.43;;;4.90;;
11113;SDS011;5610;52.154;9.198;2023-08-08T03:26:15;5.50;;;5.00;;
11113;SDS011;5610;52.154;9.198;2023-08-08T03:29:00;8.07;;;4.47;;
11113;SDS011;5610;52.154;9.198;2023-08-08T03:31:55;6.10;;;4.90;;
11113;SDS011;5610;52.154;9.198;2023-08-08T03:34:43;6.23;;;4.40;;
11113;SDS011;5610;52.154;9.198;2023-08-08T03:37:31;4.30;;;3.83;;
11113;SDS011;5610;52.154;9.198;2023-08-08T03:40:17;8.13;;;4.63;;
11113;SDS011;5610;52.154;9.198;2023-08-08T03:43:02;4.57;;;4.13;;
11113;SDS011;5610;52.154;9.198;2023-08-08T03:45:48;5.10;;;4.00;;
11113;SDS011;5610;52.154;9.198;2023-08-08T03:48:33;5.67;;;3.70;;
11113;SDS011;5610;52.154;9.198;2023-08-08T03:51:18;5.07;;;3.47;;
11113;SDS011;5610;52.154;9.198;2023-08-08T03:54:05;5.77;;;4.83;;
11113;SDS011;5610;52.154;9.198;2023-08-08T03:56:51;4.50;;;3.93;;
11113;SDS011;5610;52.154;9.198;2023-08-08T03:59:38;6.07;;;4.10;;
11113;SDS011;5610;52.154;9.198;2023-08-08T04:02:24;5.90;;;4.23;;
11113;SDS011;5610;52.154;9.198;2023-08-08T04:05:09;6.20;;;4.17;;
11113;SDS011;5610;52.154;9.198;2023-08-08T04:07:55;4.70;;;4.30;;
11113;SDS011;5610;52.154;9.198;2023-08-08T04:10:42;6.70;;;4.73;;
11113;SDS011;5610;52.154;9.198;2023-08-08T04:13:27;6.03;;;4.90;;
11113;SDS011;5610;52.154;9.198;2023-08-08T04:16:12;6.00;;;5.13;;
11113;SDS011;5610;52.154;9.198;2023-08-08T04:18:57;9.40;;;6.63;;
11113;SDS011;5610;52.154;9.198;2023-08-08T04:21:44;6.23;;;5.60;;
11113;SDS011;5610;52.154;9.198;2023-08-08T04:24:29;6.80;;;5.83;;
11113;SDS011;5610;52.154;9.198;2023-08-08T04:27:15;7.97;;;6.20;;
11113;SDS011;5610;52.154;9.198;2023-08-08T04:30:01;6.97;;;5.43;;
11113;SDS011;5610;52.154;9.198;2023-08-08T04:32:46;9.20;;;6.67;;
11113;SDS011;5610;52.154;9.198;2023-08-08T04:35:31;7.70;;;6.70;;
11113;SDS011;5610;52.154;9.198;2023-08-08T04:38:17;12.87;;;6.90;;
11113;SDS011;5610;52.154;9.198;2023-08-08T04:41:02;7.77;;;6.13;;
11113;SDS011;5610;52.154;9.198;2023-08-08T04:43:48;8.73;;;6.53;;
11113;SDS011;5610;52.154;9.198;2023-08-08T04:46:34;7.70;;;6.97;;
11113;SDS011;5610;52.154;9.198;2023-08-08T04:49:19;10.00;;;7.30;;
11113;SDS011;5610;52.154;9.198;2023-08-08T04:52:05;7.97;;;7.17;;
11113;SDS011;5610;52.154;9.198;2023-08-08T04:54:50;8.83;;;6.70;;
11113;SDS011;5610;52.154;9.198;2023-08-08T04:57:35;11.10;;;8.20;;
11113;SDS011;5610;52.154;9.198;2023-08-08T05:00:22;9.97;;;8.80;;
11113;SDS011;5610;52.154;9.198;2023-08-08T05:03:07;7.73;;;7.03;;
11113;SDS011;5610;52.154;9.198;2023-08-08T05:05:52;11.97;;;8.43;;
11113;SDS011;5610;52.154;9.198;2023-08-08T05:08:37;10.10;;;7.23;;
11113;SDS011;5610;52.154;9.198;2023-08-08T05:11:22;9.33;;;7.97;;
11113;SDS011;5610;52.154;9.198;2023-08-08T05:14:08;11.40;;;8.37;;
11113;SDS011;5610;52.154;9.198;2023-08-08T05:16:55;10.93;;;7.90;;
11113;SDS011;5610;52.154;9.198;2023-08-08T05:19:40;10.37;;;9.20;;
11113;SDS011;5610;52.154;9.198;2023-08-08T05:22:25;13.27;;;8.37;;
11113;SDS011;5610;52.154;9.198;2023-08-08T05:25:11;10.00;;;9.10;;
11113;SDS011;5610;52.154;9.198;2023-08-08T05:27:56;11.77;;;9.63;;
11113;SDS011;5610;52.154;9.198;2023-08-08T05:30:41;10.90;;;9.87;;
11113;SDS011;5610;52.154;9.198;2023-08-08T05:33:28;10.57;;;9.67;;
11113;SDS011;5610;52.154;9.198;2023-08-08T05:36:14;12.50;;;11.30;;
11113;SDS011;5610;52.154;9.198;2023-08-08T05:38:59;12.70;;;11.20;;
11113;SDS011;5610;52.154;9.198;2023-08-08T05:41:44;12.57;;;11.47;;
11113;SDS011;5610;52.154;9.198;2023-08-08T05:44:29;11.50;;;10.53;;
11113;SDS011;5610;52.154;9.198;2023-08-08T05:47:14;12.90;;;11.57;;
11113;SDS011;5610;52.154;9.198;2023-08-08T05:50:01;12.90;;;11.57;;
11113;SDS011;5610;52.154;9.198;2023-08-08T05:52:47;13.30;;;11.63;;
11113;SDS011;5610;52.154;9.198;2023-08-08T05:55:32;13.03;;;12.00;;
11113;SDS011;5610;52.154;9.198;2023-08-08T05:58:17;13.00;;;11.70;;
11113;SDS011;5610;52.154;9.198;2023-08-08T06:01:02;15.37;;;12.00;;
11113;SDS011;5610;52.154;9.198;2023-08-08T06:03:50;14.33;;;11.17;;
11113;SDS011;5610;52.154;9.198;2023-08-08T06:06:38;12.10;;;10.87;;
11113;SDS011;5610;52.154;9.198;2023-08-08T06:09:24;12.17;;;11.03;;
11113;SDS011;5610;52.154;9.198;2023-08-08T06:12:09;12.57;;;11.37;;
11113;SDS011;5610;52.154;9.198;2023-08-08T06:14:55;17.77;;;11.60;;
11113;SDS011;5610;52.154;9.198;2023-08-08T06:17:40;14.70;;;13.10;;
11113;SDS011;5610;52.154;9.198;2023-08-08T06:20:25;13.73;;;12.30;;
11113;SDS011;5610;52.154;9.198;2023-08-08T06:23:13;12.93;;;11.77;;
11113;SDS011;5610;52.154;9.198;2023-08-08T06:25:59;12.20;;;11.10;;
11113;SDS011;5610;52.154;9.198;2023-08-08T06:28:44;13.37;;;12.37;;
11113;SDS011;5610;52.154;9.198;2023-08-08T06:31:29;14.97;;;13.47;;
11113;SDS011;5610;52.154;9.198;2023-08-08T06:34:15;13.17;;;12.17;;
11113;SDS011;5610;52.154;9.198;2023-08-08T06:37:00;15.30;;;13.43;;
11113;SDS011;5610;52.154;9.198;2023-08-08T06:39:46;14.20;;;12.73;;
11113;SDS011;5610;52.154;9.198;2023-08-08T06:42:31;15.03;;;13.10;;
11113;SDS011;5610;52.154;9.198;2023-08-08T06:45:18;13.50;;;12.13;;
11113;SDS011;5610;52.154;9.198;2023-08-08T06:48:04;14.40;;;11.30;;
11113;SDS011;5610;52.154;9.198;2023-08-08T06:50:50;16.30;;;12.47;;
11113;SDS011;5610;52.154;9.198;2023-08-08T06:53:35;11.70;;;10.60;;
11113;SDS011;5610;52.154;9.198;2023-08-08T06:56:22;12.40;;;11.30;;
11113;SDS011;5610;52.154;9.198;2023-08-08T06:59:07;11.50;;;10.50;;
11113;SDS011;5610;52.154;9.198;2023-08-08T07:01:52;11.10;;;10.20;;
11113;SDS011;5610;52.154;9.198;2023-08-08T07:04:40;10.70;;;9.60;;
11113;SDS011;5610;52.154;9.198;2023-08-08T07:07:25;10.77;;;9.83;;
11113;SDS011;5610;52.154;9.198;2023-08-08T07:10:11;9.67;;;8.87;;
11113;SDS011;5610;52.154;9.198;2023-08-08T07:12:58;9.57;;;8.50;;
11113;SDS011;5610;52.154;9.198;2023-08-08T07:15:43;7.83;;;7.20;;
11113;SDS011;5610;52.154;9.198;2023-08-08T07:18:28;9.13;;;8.23;;
11113;SDS011;5610;52.154;9.198;2023-08-08T07:21:13;10.10;;;7.60;;
11113;SDS011;5610;52.154;9.198;2023-08-08T07:23:58;11.37;;;7.80;;
11113;SDS011;5610;52.154;9.198;2023-08-08T07:26:43;11.63;;;7.00;;
11113;SDS011;5610;52.154;9.198;2023-08-08T07:29:30;6.90;;;6.20;;
11113;SDS011;5610;52.154;9.198;2023-08-08T07:32:15;8.10;;;5.40;;
11113;SDS011;5610;52.154;9.198;2023-08-08T07:35:01;5.97;;;5.13;;
11113;SDS011;5610;52.154;9.198;2023-08-08T07:37:49;6.60;;;4.93;;
11113;SDS011;5610;52.154;9.198;2023-08-08T07:40:34;5.47;;;4.80;;
11113;SDS011;5610;52.154;9.198;2023-08-08T07:43:20;6.23;;;4.47;;
11113;SDS011;5610;52.154;9.198;2023-08-08T07:46:07;5.60;;;4.40;;
11113;SDS011;5610;52.154;9.198;2023-08-08T07:48:52;6.13;;;5.07;;
11113;SDS011;5610;52.154;9.198;2023-08-08T07:51:37;5.20;;;4.67;;
11113;SDS011;5610;52.154;9.198;2023-08-08T07:54:22;8.40;;;6.00;;
11113;SDS011;5610;52.154;9.198;2023-08-08T07:57:08;5.83;;;5.33;;
11113;SDS011;5610;52.154;9.198;2023-08-08T07:59:54;6.90;;;6.20;;
11113;SDS011;5610;52.154;9.198;2023-08-08T08:02:41;9.87;;;5.40;;
11113;SDS011;5610;52.154;9.198;2023-08-08T08:05:27;13.17;;;5.63;;
11113;SDS011;5610;52.154;9.198;2023-08-08T08:08:12;6.37;;;5.33;;
11113;SDS011;5610;52.154;9.198;2023-08-08T08:10:58;6.23;;;5.73;;
11113;SDS011;5610;52.154;9.198;2023-08-08T08:13:43;8.27;;;5.40;;
11113;SDS011;5610;52.154;9.198;2023-08-08T08:16:28;6.00;;;5.40;;
11113;SDS011;5610;52.154;9.198;2023-08-08T08:19:15;6.70;;;4.50;;
11113;SDS011;5610;52.154;9.198;2023-08-08T08:22:00;5.03;;;4.50;;
11113;SDS011;5610;52.154;9.198;2023-08-08T08:24:46;8.40;;;5.33;;
11113;SDS011;5610;52.154;9.198;2023-08-08T08:27:31;5.93;;;4.50;;
11113;SDS011;5610;52.154;9.198;2023-08-08T08:30:17;7.83;;;5.50;;
11113;SDS011;5610;52.154;9.198;2023-08-08T08:33:03;6.70;;;4.90;;
11113;SDS011;5610;52.154;9.198;2023-08-08T08:35:52;8.17;;;5.37;;
11113;SDS011;5610;52.154;9.198;2023-08-08T08:38:37;7.77;;;5.80;;
11113;SDS011;5610;52.154;9.198;2023-08-08T08:41:25;6.13;;;5.03;;
11113;SDS011;5610;52.154;9.198;2023-08-08T08:44:12;5.73;;;4.53;;
11113;SDS011;5610;52.154;9.198;2023-08-08T08:46:59;6.47;;;4.73;;
11113;SDS011;5610;52.154;9.198;2023-08-08T08:49:47;6.83;;;5.53;;
11113;SDS011;5610;52.154;9.198;2023-08-08T08:52:34;6.03;;;5.43;;
11113;SDS011;5610;52.154;9.198;2023-08-08T08:55:20;6.80;;;5.67;;
11113;SDS011;5610;52.154;9.198;2023-08-08T08:58:06;8.07;;;7.30;;
11113;SDS011;5610;52.154;9.198;2023-08-08T09:00:52;10.80;;;6.87;;
11113;SDS011;5610;52.154;9.198;2023-08-08T09:03:39;8.73;;;7.83;;
11113;SDS011;5610;52.154;9.198;2023-08-08T09:06:26;8.60;;;7.80;;
11113;SDS011;5610;52.154;9.198;2023-08-08T09:09:14;8.20;;;6.90;;
11113;SDS011;5610;52.154;9.198;2023-08-08T09:12:01;9.40;;;7.73;;
11113;SDS011;5610;52.154;9.198;2023-08-08T09:14:48;7.97;;;7.27;;
11113;SDS011;5610;52.154;9.198;2023-08-08T09:17:40;8.00;;;7.30;;
11113;SDS011;5610;52.154;9.198;2023-08-08T09:20:26;8.57;;;7.77;;
11113;SDS011;5610;52.154;9.198;2023-08-08T09:23:13;7.60;;;6.80;;
11113;SDS011;5610;52.154;9.198;2023-08-08T09:25:59;9.37;;;8.40;;
11113;SDS011;5610;52.154;9.198;2023-08-08T09:28:44;10.27;;;9.27;;
11113;SDS011;5610;52.154;9.198;2023-08-08T09:31:30;15.07;;;9.77;;
11113;SDS011;5610;52.154;9.198;2023-08-08T09:34:15;10.23;;;8.30;;
11113;SDS011;5610;52.154;9.198;2023-08-08T09:37:01;12.20;;;10.43;;
11113;SDS011;5610;52.154;9.198;2023-08-08T09:39:46;11.10;;;9.23;;
11113;SDS011;5610;52.154;9.198;2023-08-08T09:42:41;9.87;;;8.80;;
11113;SDS011;5610;52.154;9.198;2023-08-08T09:45:26;9.87;;;8.53;;
11113;SDS011;5610;52.154;9.198;2023-08-08T09:48:11;9.13;;;8.20;;
11113;SDS011;5610;52.154;9.198;2023-08-08T09:50:57;8.30;;;7.70;;
11113;SDS011;5610;52.154;9.198;2023-08-08T09:53:43;8.40;;;7.50;;
11113;SDS011;5610;52.154;9.198;2023-08-08T09:56:30;7.00;;;6.30;;
11113;SDS011;5610;52.154;9.198;2023-08-08T09:59:19;7.27;;;5.63;;
11113;SDS011;5610;52.154;9.198;2023-08-08T10:02:05;7.23;;;6.23;;
11113;SDS011;5610;52.154;9.198;2023-08-08T10:04:52;6.90;;;6.10;;
11113;SDS011;5610;52.154;9.198;2023-08-08T10:07:39;6.60;;;5.90;;
11113;SDS011;5610;52.154;9.198;2023-08-08T10:10:25;5.40;;;4.77;;
11113;SDS011;5610;52.154;9.198;2023-08-08T10:13:18;7.97;;;4.97;;
11113;SDS011;5610;52.154;9.198;2023-08-08T10:16:07;6.17;;;4.37;;
11113;SDS011;5610;52.154;9.198;2023-08-08T10:18:56;5.53;;;3.87;;
11113;SDS011;5610;52.154;9.198;2023-08-08T10:21:43;7.40;;;3.97;;
11113;SDS011;5610;52.154;9.198;2023-08-08T10:24:32;6.47;;;4.63;;
11113;SDS011;5610;52.154;9.198;2023-08-08T10:27:26;6.63;;;4.63;;
11113;SDS011;5610;52.154;9.198;2023-08-08T10:30:12;6.30;;;4.20;;
11113;SDS011;5610;52.154;9.198;2023-08-08T10:32:59;6.80;;;4.77;;
11113;SDS011;5610;52.154;9.198;2023-08-08T10:35:57;3.57;;;3.27;;
11113;SDS011;5610;52.154;9.198;2023-08-08T10:38:43;5.73;;;3.67;;
11113;SDS011;5610;52.154;9.198;2023-08-08T10:41:32;3.87;;;3.30;;
11113;SDS011;5610;52.154;9.198;2023-08-08T10:44:21;5.30;;;3.83;;
11113;SDS011;5610;52.154;9.198;2023-08-08T10:47:08;4.60;;;3.60;;
11113;SDS011;5610;52.154;9.198;2023-08-08T10:49:58;4.20;;;3.40;;
11113;SDS011;5610;52.154;9.198;2023-08-08T10:52:54;5.03;;;3.70;;
11113;SDS011;5610;52.154;9.198;2023-08-08T10:55:40;5.00;;;2.67;;
11113;SDS011;5610;52.154;9.198;2023-08-08T10:58:34;4.83;;;2.80;;
11113;SDS011;5610;52.154;9.198;2023-08-08T11:01:24;3.90;;;1.90;;
11113;SDS011;5610;52.154;9.198;2023-08-08T11:04:10;3.27;;;2.10;;
11113;SDS011;5610;52.154;9.198;2023-08-08T11:06:57;5.10;;;2.33;;
11113;SDS011;5610;52.154;9.198;2023-08-08T11:09:42;2.93;;;2.40;;
11113;SDS011;5610;52.154;9.198;2023-08-08T11:12:28;3.83;;;2.23;;
11113;SDS011;5610;52.154;9.198;2023-08-08T11:15:13;4.23;;;2.30;;
11113;SDS011;5610;52.154;9.198;2023-08-08T11:17:59;3.20;;;2.33;;
11113;SDS011;5610;52.154;9.198;2023-08-08T11:20:45;4.97;;;2.30;;
11113;SDS011;5610;52.154;9.198;2023-08-08T11:23:32;6.40;;;2.40;;
11113;SDS011;5610;52.154;9.198;2023-08-08T11:26:21;3.50;;;2.10;;
11113;SDS011;5610;52.154;9.198;2023-08-08T11:29:07;3.60;;;2.90;;
11113;SDS011;5610;52.154;9.198;2023-08-08T11:31:52;5.47;;;2.60;;
11113;SDS011;5610;52.154;9.198;2023-08-08T11:34:38;4.93;;;2.10;;
11113;SDS011;5610;52.154;9.198;2023-08-08T11:37:23;4.67;;;2.00;;
11113;SDS011;5610;52.154;9.198;2023-08-08T11:40:10;4.27;;;2.57;;
11113;SDS011;5610;52.154;9.198;2023-08-08T11:42:56;8.33;;;2.30;;
11113;SDS011;5610;52.154;9.198;2023-08-08T11:45:43;3.40;;;2.13;;
11113;SDS011;5610;52.154;9.198;2023-08-08T11:48:28;3.27;;;2.10;;
11113;SDS011;5610;52.154;9.198;2023-08-08T11:51:14;3.20;;;1.80;;
11113;SDS011;5610;52.154;9.198;2023-08-08T11:54:01;3.43;;;1.80;;
11113;SDS011;5610;52.154;9.198;2023-08-08T11:56:49;3.40;;;2.00;;
11113;SDS011;5610;52.154;9.198;2023-08-08T11:59:35;3.60;;;1.90;;
11113;SDS011;5610;52.154;9.198;2023-08-08T12:02:21;2.63;;;1.60;;
11113;SDS011;5610;52.154;9.198;2023-08-08T12:05:08;3.40;;;1.80;;
11113;SDS011;5610;52.154;9.198;2023-08-08T12:07:54;2.63;;;1.43;;
11113;SDS011;5610;52.154;9.198;2023-08-08T12:10:40;4.97;;;1.67;;
11113;SDS011;5610;52.154;9.198;2023-08-08T12:13:35;3.13;;;2.00;;
11113;SDS011;5610;52.154;9.198;2023-08-08T12:16:23;3.07;;;1.33;;
11113;SDS011;5610;52.154;9.198;2023-08-08T12:19:12;2.47;;;1.30;;
11113;SDS011;5610;52.154;9.198;2023-08-08T12:22:01;2.83;;;1.67;;
11113;SDS011;5610;52.154;9.198;2023-08-08T12:24:47;2.43;;;1.43;;
11113;SDS011;5610;52.154;9.198;2023-08-08T12:27:31;3.67;;;1.50;;
11113;SDS011;5610;52.154;9.198;2023-08-08T12:30:18;3.00;;;1.30;;
11113;SDS011;5610;52.154;9.198;2023-08-08T12:33:04;4.77;;;2.13;;
11113;SDS011;5610;52.154;9.198;2023-08-08T12:35:49;3.40;;;1.50;;
11113;SDS011;5610;52.154;9.198;2023-08-08T12:38:34;4.77;;;1.60;;
11113;SDS011;5610;52.154;9.198;2023-08-08T12:41:19;1.67;;;1.47;;
11113;SDS011;5610;52.154;9.198;2023-08-08T12:44:05;3.80;;;1.47;;
11113;SDS011;5610;52.154;9.198;2023-08-08T12:46:53;2.43;;;1.40;;
11113;SDS011;5610;52.154;9.198;2023-08-08T12:49:38;3.00;;;1.40;;
11113;SDS011;5610;52.154;9.198;2023-08-08T12:52:24;2.90;;;0.90;;
11113;SDS011;5610;52.154;9.198;2023-08-08T12:55:09;1.60;;;1.00;;
11113;SDS011;5610;52.154;9.198;2023-08-08T12:57:55;2.43;;;1.30;;
11113;SDS011;5610;52.154;9.198;2023-08-08T13:00:40;2.10;;;1.23;;
11113;SDS011;5610;52.154;9.198;2023-08-08T13:03:27;4.80;;;1.30;;
11113;SDS011;5610;52.154;9.198;2023-08-08T13:06:14;1.57;;;1.20;;
11113;SDS011;5610;52.154;9.198;2023-08-08T13:08:59;2.00;;;1.13;;
11113;SDS011;5610;52.154;9.198;2023-08-08T13:11:45;1.10;;;0.77;;
11113;SDS011;5610;52.154;9.198;2023-08-08T13:14:30;3.10;;;1.00;;
11113;SDS011;5610;52.154;9.198;2023-08-08T13:17:15;2.63;;;1.13;;
11113;SDS011;5610;52.154;9.198;2023-08-08T13:20:02;2.80;;;1.47;;
11113;SDS011;5610;52.154;9.198;2023-08-08T13:22:48;1.80;;;1.03;;
11113;SDS011;5610;52.154;9.198;2023-08-08T13:25:32;3.20;;;1.20;;
11113;SDS011;5610;52.154;9.198;2023-08-08T13:28:18;2.43;;;1.17;;
11113;SDS011;5610;52.154;9.198;2023-08-08T13:31:03;4.43;;;1.17;;
11113;SDS011;5610;52.154;9.198;2023-08-08T13:33:50;2.17;;;1.10;;
11113;SDS011;5610;52.154;9.198;2023-08-08T13:36:36;2.40;;;1.20;;
11113;SDS011;5610;52.154;9.198;2023-08-08T13:39:21;3.20;;;1.17;;
11113;SDS011;5610;52.154;9.198;2023-08-08T13:42:07;1.70;;;1.30;;
11113;SDS011;5610;52.154;9.198;2023-08-08T13:44:53;2.90;;;1.10;;
11113;SDS011;5610;52.154;9.198;2023-08-08T13:47:38;2.13;;;1.07;;
11113;SDS011;5610;52.154;9.198;2023-08-08T13:50:23;2.17;;;1.10;;
11113;SDS011;5610;52.154;9.198;2023-08-08T13:53:10;2.17;;;1.20;;
11113;SDS011;5610;52.154;9.198;2023-08-08T13:55:55;1.40;;;1.13;;
11113;SDS011;5610;52.154;9.198;2023-08-08T13:58:40;2.90;;;1.23;;
11113;SDS011;5610;52.154;9.198;2023-08-08T14:01:26;2.40;;;1.30;;
11113;SDS011;5610;52.154;9.198;2023-08-08T14:04:11;1.30;;;0.93;;
11113;SDS011;5610;52.154;9.198;2023-08-08T14:06:57;2.57;;;1.13;;
11113;SDS011;5610;52.154;9.198;2023-08-08T14:09:43;1.93;;;0.80;;
11113;SDS011;5610;52.154;9.198;2023-08-08T14:12:29;1.80;;;1.20;;
11113;SDS011;5610;52.154;9.198;2023-08-08T14:15:14;1.10;;;0.90;;
11113;SDS011;5610;52.154;9.198;2023-08-08T14:17:59;1.20;;;0.80;;
11113;SDS011;5610;52.154;9.198;2023-08-08T14:20:45;1.67;;;1.10;;
11113;SDS011;5610;52.154;9.198;2023-08-08T14:23:30;1.80;;;0.93;;
11113;SDS011;5610;52.154;9.198;2023-08-08T14:26:17;2.37;;;1.30;;
11113;SDS011;5610;52.154;9.198;2023-08-08T14:29:02;1.40;;;1.00;;
11113;SDS011;5610;52.154;9.198;2023-08-08T14:31:48;6.17;;;1.40;;
11113;SDS011;5610;52.154;9.198;2023-08-08T14:34:33;4.73;;;1.10;;
11113;SDS011;5610;52.154;9.198;2023-08-08T14:37:21;1.53;;;1.10;;
11113;SDS011;5610;52.154;9.198;2023-08-08T14:40:07;1.97;;;1.40;;
11113;SDS011;5610;52.154;9.198;2023-08-08T14:42:55;1.43;;;0.97;;
11113;SDS011;5610;52.154;9.198;2023-08-08T14:45:40;1.13;;;0.90;;
11113;SDS011;5610;52.154;9.198;2023-08-08T14:48:25;2.70;;;1.20;;
11113;SDS011;5610;52.154;9.198;2023-08-08T14:51:10;2.30;;;0.90;;
11113;SDS011;5610;52.154;9.198;2023-08-08T14:54:00;1.63;;;0.90;;
11113;SDS011;5610;52.154;9.198;2023-08-08T14:56:45;1.63;;;0.93;;
11113;SDS011;5610;52.154;9.198;2023-08-08T14:59:31;2.20;;;1.03;;
11113;SDS011;5610;52.154;9.198;2023-08-08T15:02:17;2.90;;;1.10;;
11113;SDS011;5610;52.154;9.198;2023-08-08T15:05:02;2.13;;;1.30;;
11113;SDS011;5610;52.154;9.198;2023-08-08T15:07:48;2.57;;;1.13;;
11113;SDS011;5610;52.154;9.198;2023-08-08T15:10:34;1.77;;;1.30;;
11113;SDS011;5610;52.154;9.198;2023-08-08T15:13:19;3.30;;;1.77;;
11113;SDS011;5610;52.154;9.198;2023-08-08T15:16:05;1.63;;;1.30;;
11113;SDS011;5610;52.154;9.198;2023-08-08T15:18:50;1.93;;;0.80;;
11113;SDS011;5610;52.154;9.198;2023-08-08T15:21:35;1.30;;;1.00;;
11113;SDS011;5610;52.154;9.198;2023-08-08T15:24:20;1.73;;;1.00;;
11113;SDS011;5610;52.154;9.198;2023-08-08T15:27:06;1.73;;;1.00;;
11113;SDS011;5610;52.154;9.198;2023-08-08T15:29:51;2.50;;;1.40;;
11113;SDS011;5610;52.154;9.198;2023-08-08T15:32:38;1.53;;;1.17;;
11113;SDS011;5610;52.154;9.198;2023-08-08T15:35:23;1.10;;;1.00;;
11113;SDS011;5610;52.154;9.198;2023-08-08T15:38:09;3.97;;;1.13;;
11113;SDS011;5610;52.154;9.198;2023-08-08T15:40:54;1.63;;;1.17;;
11113;SDS011;5610;52.154;9.198;2023-08-08T15:43:39;2.37;;;1.20;;
11113;SDS011;5610;52.154;9.198;2023-08-08T15:46:24;1.90;;;1.20;;
11113;SDS011;5610;52.154;9.198;2023-08-08T15:49:11;2.90;;;1.40;;
11113;SDS011;5610;52.154;9.198;2023-08-08T15:51:57;1.33;;;1.10;;
11113;SDS011;5610;52.154;9.198;2023-08-08T15:54:42;2.33;;;1.17;;
11113;SDS011;5610;52.154;9.198;2023-08-08T15:57:27;2.63;;;1.00;;
11113;SDS011;5610;52.154;9.198;2023-08-08T16:00:12;1.87;;;1.30;;
11113;SDS011;5610;52.154;9.198;2023-08-08T16:03:01;2.70;;;1.33;;
11113;SDS011;5610;52.154;9.198;2023-08-08T16:05:48;1.40;;;1.30;;
11113;SDS011;5610;52.154;9.198;2023-08-08T16:08:33;1.73;;;1.30;;
11113;SDS011;5610;52.154;9.198;2023-08-08T16:11:18;1.97;;;1.77;;
11113;SDS011;5610;52.154;9.198;2023-08-08T16:14:03;1.60;;;1.30;;
11113;SDS011;5610;52.154;9.198;2023-08-08T16:16:49;2.37;;;1.00;;
11113;SDS011;5610;52.154;9.198;2023-08-08T16:19:34;3.17;;;1.10;;
11113;SDS011;5610;52.154;9.198;2023-08-08T16:22:21;1.50;;;1.30;;
11113;SDS011;5610;52.154;9.198;2023-08-08T16:25:06;4.80;;;1.30;;
11113;SDS011;5610;52.154;9.198;2023-08-08T16:27:52;1.47;;;1.03;;
11113;SDS011;5610;52.154;9.198;2023-08-08T16:30:37;1.60;;;1.50;;
11113;SDS011;5610;52.154;9.198;2023-08-08T16:33:22;1.80;;;1.07;;
11113;SDS011;5610;52.154;9.198;2023-08-08T16:36:07;2.50;;;1.40;;
11113;SDS011;5610;52.154;9.198;2023-08-08T16:38:54;2.93;;;1.23;;
11113;SDS011;5610;52.154;9.198;2023-08-08T16:41:39;1.77;;;1.13;;
11113;SDS011;5610;52.154;9.198;2023-08-08T16:44:24;2.07;;;1.17;;
11113;SDS011;5610;52.154;9.198;2023-08-08T16:47:09;4.47;;;1.63;;
11113;SDS011;5610;52.154;9.198;2023-08-08T16:49:57;2.13;;;1.10;;
11113;SDS011;5610;52.154;9.198;2023-08-08T16:53:15;1.43;;;1.30;;